This is the latest recevied weather packets stored in our database for station/object DG3GAI-6. If no packets are shown the sender has not sent any weather packets the latest 1 day(s).
| Time | Temp. | Humidity | Pressure | Rain* | Wind** | Luminosity | Snow |
|---|---|---|---|---|---|---|---|
| 1836274420 | 14.44° C | 81% | 1026 hPa | - | 0 m/s | - | - |
| 1778006777 | 13.33° C | 84% | 1013 hPa | - | 0 m/s | - | - |
| 1778004970 | 13.89° C | 83% | 1012 hPa | - | 0 m/s | - | - |
| 1778003163 | 13.89° C | 82% | 1012 hPa | - | 0 m/s | - | - |
| 1778001356 | 13.89° C | 83% | 1012 hPa | - | 0 m/s | - | - |
| 1777999548 | 13.89° C | 86% | 1012 hPa | - | 0 m/s | - | - |
| 1777997741 | 13.33° C | 87% | 1012 hPa | - | 0 m/s | - | - |
| 1777995934 | 13.33° C | 85% | 1012 hPa | - | 0 m/s | - | - |
| 1777994126 | 13.89° C | 79% | 1012 hPa | - | 0 m/s | - | - |
| 1777992319 | 14.44° C | 78% | 1012 hPa | - | 0 m/s | - | - |
| 1777990512 | 13.89° C | 82% | 1012 hPa | - | 0 m/s | - | - |
| 1777988705 | 13.89° C | 84% | 1012 hPa | - | 0 m/s | - | - |
| 1777986897 | 13.33° C | 89% | 1012 hPa | - | 0 m/s | - | - |
| 1777985090 | 12.78° C | 93% | 1013 hPa | - | 0 m/s | - | - |
| 1777983283 | 12.78° C | 91% | 1013 hPa | - | 0 m/s | - | - |
| 1777981476 | 13.33° C | 87% | 1013 hPa | - | 0 m/s | - | - |
| 1777979668 | 13.33° C | 88% | 1013 hPa | - | 0 m/s | - | - |
| 1777977861 | 13.33° C | 87% | 1013 hPa | - | 0 m/s | - | - |
| 1777976059 | 13.33° C | 82% | 1013 hPa | - | 0 m/s | - | - |
| 1777974247 | 13.33° C | 76% | 1013 hPa | - | 0 m/s | - | - |
| 1777972439 | 13.33° C | 75% | 1013 hPa | - | 0 m/s | - | - |
| 1777970632 | 13.33° C | 73% | 1013 hPa | - | 0 m/s | - | - |
| 1777968825 | 13.33° C | 74% | 1013 hPa | - | 0 m/s | - | - |
| 1777967017 | 12.78° C | 76% | 1013 hPa | - | 0 m/s | - | - |
| 1777965210 | 12.78° C | 80% | 1014 hPa | - | 0 m/s | - | - |
* Rain since midnight (hover to see other rain measurements)
** Current wind speed in m/s (hover to see current wind gust speed)